Allendale, California
Current Conditions -  °F | °C
As of 6:53 PM on Friday 21 Nov 2014 (Local Time) from KVCB Reporting Station
Broken Clouds Broken Clouds  
Wind Chill: 57°   Ceiling: 5500
Heat Index: 57°   Visibility: 10mi
Dew Point: 50°   Wind: 5mph
Humidity: 77%   Direction: 190°S
Pressure: 30.12"   Gusts: NA
Location:  38.4195°N, 122.026°W
Report Text: KVCB 220253Z AUTO 19004KT 10SM BKN055 14/10 A3012 RMK AO2 SLP200 60000 T01390100 53005 TSNO
Loading
Personal Weather Stations






























Interactive Weather Map New forecast layout! Learn more

10-Day Weather Forecast

Advertisements
Track Severe Weather on mobile